sensor_id;sensor_type;location;lat;lon;timestamp;temperature;humidity
80412;SHT30;69749;42.684;23.360;2024-03-23T00:53:59;9.51;48.24
80412;SHT30;69749;42.684;23.360;2024-03-23T00:56:25;9.50;48.07
80412;SHT30;69749;42.684;23.360;2024-03-23T00:58:50;9.40;48.51
80412;SHT30;69749;42.684;23.360;2024-03-23T01:01:16;9.39;48.13
80412;SHT30;69749;42.684;23.360;2024-03-23T01:03:41;9.32;48.27
80412;SHT30;69749;42.684;23.360;2024-03-23T01:06:07;9.36;48.62
80412;SHT30;69749;42.684;23.360;2024-03-23T01:08:32;9.35;48.74
80412;SHT30;69749;42.684;23.360;2024-03-23T01:10:59;9.23;48.94
80412;SHT30;69749;42.684;23.360;2024-03-23T01:13:25;9.29;48.87
80412;SHT30;69749;42.684;23.360;2024-03-23T01:15:51;9.22;48.64
80412;SHT30;69749;42.684;23.360;2024-03-23T01:18:17;9.20;48.74
80412;SHT30;69749;42.684;23.360;2024-03-23T01:20:43;9.18;49.56
80412;SHT30;69749;42.684;23.360;2024-03-23T01:23:09;9.11;49.01
80412;SHT30;69749;42.684;23.360;2024-03-23T01:25:34;9.06;48.84
80412;SHT30;69749;42.684;23.360;2024-03-23T01:28:00;9.02;48.93
80412;SHT30;69749;42.684;23.360;2024-03-23T01:30:25;9.09;48.29
80412;SHT30;69749;42.684;23.360;2024-03-23T01:32:51;9.11;48.26
80412;SHT30;69749;42.684;23.360;2024-03-23T01:35:16;9.15;48.38
80412;SHT30;69749;42.684;23.360;2024-03-23T01:37:42;9.15;48.33
80412;SHT30;69749;42.684;23.360;2024-03-23T01:40:07;9.19;48.52
80412;SHT30;69749;42.684;23.360;2024-03-23T01:42:33;9.20;48.01
80412;SHT30;69749;42.684;23.360;2024-03-23T01:44:59;9.25;48.00
80412;SHT30;69749;42.684;23.360;2024-03-23T01:47:24;9.09;48.00
80412;SHT30;69749;42.684;23.360;2024-03-23T01:49:50;9.02;48.48
80412;SHT30;69749;42.684;23.360;2024-03-23T01:52:17;8.91;48.51
80412;SHT30;69749;42.684;23.360;2024-03-23T01:54:43;8.88;48.41
80412;SHT30;69749;42.684;23.360;2024-03-23T01:57:09;8.85;48.48
80412;SHT30;69749;42.684;23.360;2024-03-23T01:59:35;8.89;48.36
80412;SHT30;69749;42.684;23.360;2024-03-23T02:02:01;8.93;48.23
80412;SHT30;69749;42.684;23.360;2024-03-23T02:04:26;8.95;47.61
80412;SHT30;69749;42.684;23.360;2024-03-23T02:06:52;8.85;47.76
80412;SHT30;69749;42.684;23.360;2024-03-23T02:09:17;8.89;47.75
80412;SHT30;69749;42.684;23.360;2024-03-23T02:11:43;8.92;47.78
80412;SHT30;69749;42.684;23.360;2024-03-23T02:14:08;8.87;47.90
80412;SHT30;69749;42.684;23.360;2024-03-23T02:16:34;8.84;48.59
80412;SHT30;69749;42.684;23.360;2024-03-23T02:18:59;8.82;48.68
80412;SHT30;69749;42.684;23.360;2024-03-23T02:21:25;8.87;48.69
80412;SHT30;69749;42.684;23.360;2024-03-23T02:23:52;8.82;48.84
80412;SHT30;69749;42.684;23.360;2024-03-23T02:26:18;8.84;48.94
80412;SHT30;69749;42.684;23.360;2024-03-23T02:28:43;8.88;48.52
80412;SHT30;69749;42.684;23.360;2024-03-23T02:31:09;8.84;48.09
80412;SHT30;69749;42.684;23.360;2024-03-23T02:33:34;8.79;48.69
80412;SHT30;69749;42.684;23.360;2024-03-23T02:36:03;8.74;49.22
80412;SHT30;69749;42.684;23.360;2024-03-23T02:38:29;8.74;49.35
80412;SHT30;69749;42.684;23.360;2024-03-23T02:40:54;8.77;49.22
80412;SHT30;69749;42.684;23.360;2024-03-23T02:43:20;8.72;49.39
80412;SHT30;69749;42.684;23.360;2024-03-23T02:45:45;8.72;49.99
80412;SHT30;69749;42.684;23.360;2024-03-23T02:48:11;8.64;49.70
80412;SHT30;69749;42.684;23.360;2024-03-23T02:50:36;8.57;50.25
80412;SHT30;69749;42.684;23.360;2024-03-23T02:53:02;8.51;50.15
80412;SHT30;69749;42.684;23.360;2024-03-23T02:55:27;8.46;50.55
80412;SHT30;69749;42.684;23.360;2024-03-23T02:57:53;8.54;50.72
80412;SHT30;69749;42.684;23.360;2024-03-23T03:00:18;8.37;50.42
80412;SHT30;69749;42.684;23.360;2024-03-23T03:02:44;8.38;50.93
80412;SHT30;69749;42.684;23.360;2024-03-23T03:05:10;8.43;51.13
80412;SHT30;69749;42.684;23.360;2024-03-23T03:07:36;8.38;50.78
80412;SHT30;69749;42.684;23.360;2024-03-23T03:10:04;8.30;50.62
80412;SHT30;69749;42.684;23.360;2024-03-23T03:12:31;8.19;50.71
80412;SHT30;69749;42.684;23.360;2024-03-23T03:14:57;8.02;50.80
80412;SHT30;69749;42.684;23.360;2024-03-23T03:17:22;7.96;51.05
80412;SHT30;69749;42.684;23.360;2024-03-23T03:19:48;7.95;51.19
80412;SHT30;69749;42.684;23.360;2024-03-23T03:22:14;7.99;51.10
80412;SHT30;69749;42.684;23.360;2024-03-23T03:24:39;7.93;51.16
80412;SHT30;69749;42.684;23.360;2024-03-23T03:27:05;7.95;51.30
80412;SHT30;69749;42.684;23.360;2024-03-23T03:29:32;7.99;51.07
80412;SHT30;69749;42.684;23.360;2024-03-23T03:32:01;7.92;51.38
80412;SHT30;69749;42.684;23.360;2024-03-23T03:34:27;7.88;51.27
80412;SHT30;69749;42.684;23.360;2024-03-23T03:36:52;7.85;51.21
80412;SHT30;69749;42.684;23.360;2024-03-23T03:39:18;7.93;51.31
80412;SHT30;69749;42.684;23.360;2024-03-23T03:41:43;7.82;51.42
80412;SHT30;69749;42.684;23.360;2024-03-23T03:44:09;7.72;51.65
80412;SHT30;69749;42.684;23.360;2024-03-23T03:46:34;7.72;51.48
80412;SHT30;69749;42.684;23.360;2024-03-23T03:49:00;7.75;52.00
80412;SHT30;69749;42.684;23.360;2024-03-23T03:51:25;7.78;51.79
80412;SHT30;69749;42.684;23.360;2024-03-23T03:53:51;7.82;51.62
80412;SHT30;69749;42.684;23.360;2024-03-23T03:56:16;7.85;51.44
80412;SHT30;69749;42.684;23.360;2024-03-23T03:58:42;7.90;51.34
80412;SHT30;69749;42.684;23.360;2024-03-23T04:01:07;7.86;51.39
80412;SHT30;69749;42.684;23.360;2024-03-23T04:03:34;7.81;51.40
80412;SHT30;69749;42.684;23.360;2024-03-23T04:05:59;7.83;51.60
80412;SHT30;69749;42.684;23.360;2024-03-23T04:08:25;7.88;51.39
80412;SHT30;69749;42.684;23.360;2024-03-23T04:10:50;7.89;51.32
80412;SHT30;69749;42.684;23.360;2024-03-23T04:13:16;7.92;51.31
80412;SHT30;69749;42.684;23.360;2024-03-23T04:15:42;7.89;51.33
80412;SHT30;69749;42.684;23.360;2024-03-23T04:18:07;7.86;51.67
80412;SHT30;69749;42.684;23.360;2024-03-23T04:20:33;7.78;51.63
80412;SHT30;69749;42.684;23.360;2024-03-23T04:22:59;7.77;51.84
80412;SHT30;69749;42.684;23.360;2024-03-23T04:25:25;7.79;52.06
80412;SHT30;69749;42.684;23.360;2024-03-23T04:27:50;7.71;51.62
80412;SHT30;69749;42.684;23.360;2024-03-23T04:30:16;7.77;51.73
80412;SHT30;69749;42.684;23.360;2024-03-23T04:32:42;7.77;51.74
80412;SHT30;69749;42.684;23.360;2024-03-23T04:35:08;7.81;51.57
80412;SHT30;69749;42.684;23.360;2024-03-23T04:37:38;7.77;51.48
80412;SHT30;69749;42.684;23.360;2024-03-23T04:40:06;7.78;51.77
80412;SHT30;69749;42.684;23.360;2024-03-23T04:42:33;7.79;51.05
80412;SHT30;69749;42.684;23.360;2024-03-23T04:44:59;7.78;51.03
80412;SHT30;69749;42.684;23.360;2024-03-23T04:47:24;7.72;50.98
80412;SHT30;69749;42.684;23.360;2024-03-23T04:49:50;7.72;50.66
80412;SHT30;69749;42.684;23.360;2024-03-23T04:52:18;7.69;51.16
80412;SHT30;69749;42.684;23.360;2024-03-23T04:54:44;7.85;51.04
80412;SHT30;69749;42.684;23.360;2024-03-23T04:57:11;7.96;50.90
80412;SHT30;69749;42.684;23.360;2024-03-23T04:59:36;7.88;50.42
80412;SHT30;69749;42.684;23.360;2024-03-23T05:02:02;7.83;50.68
80412;SHT30;69749;42.684;23.360;2024-03-23T05:04:28;7.78;51.08
80412;SHT30;69749;42.684;23.360;2024-03-23T05:06:53;7.77;50.70
80412;SHT30;69749;42.684;23.360;2024-03-23T05:09:19;7.79;50.89
80412;SHT30;69749;42.684;23.360;2024-03-23T05:11:45;7.86;50.79
80412;SHT30;69749;42.684;23.360;2024-03-23T05:14:13;7.86;50.76
80412;SHT30;69749;42.684;23.360;2024-03-23T05:16:38;7.99;50.49
80412;SHT30;69749;42.684;23.360;2024-03-23T05:19:04;8.10;50.27
80412;SHT30;69749;42.684;23.360;2024-03-23T05:21:29;8.23;49.56
80412;SHT30;69749;42.684;23.360;2024-03-23T05:23:55;8.37;49.14
80412;SHT30;69749;42.684;23.360;2024-03-23T05:26:22;8.51;48.07
80412;SHT30;69749;42.684;23.360;2024-03-23T05:28:47;8.67;47.82
80412;SHT30;69749;42.684;23.360;2024-03-23T05:31:25;8.98;47.47
80412;SHT30;69749;42.684;23.360;2024-03-23T05:33:50;8.89;46.56
80412;SHT30;69749;42.684;23.360;2024-03-23T05:36:17;9.14;46.12
80412;SHT30;69749;42.684;23.360;2024-03-23T05:38:42;9.43;45.52
80412;SHT30;69749;42.684;23.360;2024-03-23T05:41:08;9.53;45.47
80412;SHT30;69749;42.684;23.360;2024-03-23T05:43:33;9.88;45.40
80412;SHT30;69749;42.684;23.360;2024-03-23T05:46:00;10.31;44.51
80412;SHT30;69749;42.684;23.360;2024-03-23T05:48:26;10.66;43.46
80412;SHT30;69749;42.684;23.360;2024-03-23T05:50:52;10.99;42.23
80412;SHT30;69749;42.684;23.360;2024-03-23T05:53:19;11.21;42.05
80412;SHT30;69749;42.684;23.360;2024-03-23T05:55:46;11.35;41.61
80412;SHT30;69749;42.684;23.360;2024-03-23T05:58:14;11.68;40.76
80412;SHT30;69749;42.684;23.360;2024-03-23T06:00:40;11.99;40.20
80412;SHT30;69749;42.684;23.360;2024-03-23T06:03:05;12.30;39.58
80412;SHT30;69749;42.684;23.360;2024-03-23T06:05:31;12.54;38.23
80412;SHT30;69749;42.684;23.360;2024-03-23T06:07:57;12.64;38.15
80412;SHT30;69749;42.684;23.360;2024-03-23T06:10:22;12.62;37.28
80412;SHT30;69749;42.684;23.360;2024-03-23T06:12:48;12.92;37.13
80412;SHT30;69749;42.684;23.360;2024-03-23T06:15:15;13.37;36.54
80412;SHT30;69749;42.684;23.360;2024-03-23T06:17:41;13.77;35.68
80412;SHT30;69749;42.684;23.360;2024-03-23T06:20:07;14.01;35.08
80412;SHT30;69749;42.684;23.360;2024-03-23T06:22:32;14.07;34.90
80412;SHT30;69749;42.684;23.360;2024-03-23T06:24:59;14.33;33.77
80412;SHT30;69749;42.684;23.360;2024-03-23T06:27:24;14.59;33.41
80412;SHT30;69749;42.684;23.360;2024-03-23T06:29:50;14.91;34.04
80412;SHT30;69749;42.684;23.360;2024-03-23T06:32:15;15.17;33.82
80412;SHT30;69749;42.684;23.360;2024-03-23T06:34:41;15.59;33.49
80412;SHT30;69749;42.684;23.360;2024-03-23T06:37:07;15.99;32.29
80412;SHT30;69749;42.684;23.360;2024-03-23T06:39:35;16.37;31.52
80412;SHT30;69749;42.684;23.360;2024-03-23T06:42:02;16.72;31.37
80412;SHT30;69749;42.684;23.360;2024-03-23T06:44:27;17.26;30.40
80412;SHT30;69749;42.684;23.360;2024-03-23T06:46:53;17.10;30.15
80412;SHT30;69749;42.684;23.360;2024-03-23T06:49:18;17.64;29.68
80412;SHT30;69749;42.684;23.360;2024-03-23T06:51:45;18.15;29.04
80412;SHT30;69749;42.684;23.360;2024-03-23T06:54:11;18.19;28.76
80412;SHT30;69749;42.684;23.360;2024-03-23T06:56:36;18.66;28.83
80412;SHT30;69749;42.684;23.360;2024-03-23T06:59:02;19.14;27.59
80412;SHT30;69749;42.684;23.360;2024-03-23T07:01:28;19.46;27.17
80412;SHT30;69749;42.684;23.360;2024-03-23T07:03:56;19.98;26.63
80412;SHT30;69749;42.684;23.360;2024-03-23T07:06:22;20.40;25.97
80412;SHT30;69749;42.684;23.360;2024-03-23T07:08:47;20.83;25.08
80412;SHT30;69749;42.684;23.360;2024-03-23T07:11:19;21.13;24.69
80412;SHT30;69749;42.684;23.360;2024-03-23T07:13:45;21.31;24.80
80412;SHT30;69749;42.684;23.360;2024-03-23T07:16:10;21.88;23.62
80412;SHT30;69749;42.684;23.360;2024-03-23T07:18:36;22.09;23.81
80412;SHT30;69749;42.684;23.360;2024-03-23T07:21:01;22.84;23.09
80412;SHT30;69749;42.684;23.360;2024-03-23T07:23:27;23.31;22.47
80412;SHT30;69749;42.684;23.360;2024-03-23T07:25:59;24.04;21.92
80412;SHT30;69749;42.684;23.360;2024-03-23T07:28:25;24.78;20.75
80412;SHT30;69749;42.684;23.360;2024-03-23T07:31:13;25.66;20.11
80412;SHT30;69749;42.684;23.360;2024-03-23T07:33:44;26.57;19.28
80412;SHT30;69749;42.684;23.360;2024-03-23T07:36:10;27.46;18.32
80412;SHT30;69749;42.684;23.360;2024-03-23T07:38:36;27.56;18.45
80412;SHT30;69749;42.684;23.360;2024-03-23T07:41:05;27.35;18.39
80412;SHT30;69749;42.684;23.360;2024-03-23T07:43:30;28.04;18.07
80412;SHT30;69749;42.684;23.360;2024-03-23T07:45:56;29.23;17.44
80412;SHT30;69749;42.684;23.360;2024-03-23T07:48:22;29.06;17.11
80412;SHT30;69749;42.684;23.360;2024-03-23T07:51:04;29.15;17.16
80412;SHT30;69749;42.684;23.360;2024-03-23T07:53:33;29.91;16.64
80412;SHT30;69749;42.684;23.360;2024-03-23T07:56:03;30.52;16.25
80412;SHT30;69749;42.684;23.360;2024-03-23T07:58:29;31.76;15.10
80412;SHT30;69749;42.684;23.360;2024-03-23T08:00:56;31.99;14.99
80412;SHT30;69749;42.684;23.360;2024-03-23T08:03:28;31.64;15.26
80412;SHT30;69749;42.684;23.360;2024-03-23T08:05:54;32.56;14.53
80412;SHT30;69749;42.684;23.360;2024-03-23T08:08:19;32.68;14.25
80412;SHT30;69749;42.684;23.360;2024-03-23T08:10:51;32.16;14.60
80412;SHT30;69749;42.684;23.360;2024-03-23T08:13:18;32.56;14.42
80412;SHT30;69749;42.684;23.360;2024-03-23T08:15:43;33.22;14.24
80412;SHT30;69749;42.684;23.360;2024-03-23T08:18:13;33.46;13.89
80412;SHT30;69749;42.684;23.360;2024-03-23T08:21:01;33.29;13.95
80412;SHT30;69749;42.684;23.360;2024-03-23T08:23:34;32.87;14.33
80412;SHT30;69749;42.684;23.360;2024-03-23T08:26:10;32.70;14.51
80412;SHT30;69749;42.684;23.360;2024-03-23T08:28:37;33.63;13.94
80412;SHT30;69749;42.684;23.360;2024-03-23T08:31:10;33.12;14.10
80412;SHT30;69749;42.684;23.360;2024-03-23T08:33:36;32.22;14.16
80412;SHT30;69749;42.684;23.360;2024-03-23T08:36:02;31.55;14.90
80412;SHT30;69749;42.684;23.360;2024-03-23T08:38:28;31.11;14.95
80412;SHT30;69749;42.684;23.360;2024-03-23T08:40:57;30.77;15.13
80412;SHT30;69749;42.684;23.360;2024-03-23T08:43:23;30.22;15.25
80412;SHT30;69749;42.684;23.360;2024-03-23T08:45:49;29.87;15.89
80412;SHT30;69749;42.684;23.360;2024-03-23T08:48:15;28.90;16.34
80412;SHT30;69749;42.684;23.360;2024-03-23T08:50:41;28.10;16.58
80412;SHT30;69749;42.684;23.360;2024-03-23T08:53:06;27.89;17.08
80412;SHT30;69749;42.684;23.360;2024-03-23T08:55:32;27.25;17.63
80412;SHT30;69749;42.684;23.360;2024-03-23T08:57:57;26.88;18.03
80412;SHT30;69749;42.684;23.360;2024-03-23T09:00:23;26.45;18.44
80412;SHT30;69749;42.684;23.360;2024-03-23T09:02:48;26.22;18.96
80412;SHT30;69749;42.684;23.360;2024-03-23T09:05:14;26.09;19.33
80412;SHT30;69749;42.684;23.360;2024-03-23T09:07:39;25.69;19.54
80412;SHT30;69749;42.684;23.360;2024-03-23T09:10:05;25.70;19.60
80412;SHT30;69749;42.684;23.360;2024-03-23T09:12:30;24.78;20.36
80412;SHT30;69749;42.684;23.360;2024-03-23T09:14:56;24.43;20.82
80412;SHT30;69749;42.684;23.360;2024-03-23T09:17:21;24.68;20.71
80412;SHT30;69749;42.684;23.360;2024-03-23T09:19:47;24.79;20.70
80412;SHT30;69749;42.684;23.360;2024-03-23T09:22:12;24.79;20.54
80412;SHT30;69749;42.684;23.360;2024-03-23T09:24:39;24.45;20.81
80412;SHT30;69749;42.684;23.360;2024-03-23T09:27:04;24.02;21.51
80412;SHT30;69749;42.684;23.360;2024-03-23T09:29:30;23.77;21.73
80412;SHT30;69749;42.684;23.360;2024-03-23T09:31:55;23.66;21.96
80412;SHT30;69749;42.684;23.360;2024-03-23T09:34:21;23.32;22.88
80412;SHT30;69749;42.684;23.360;2024-03-23T09:36:47;23.24;22.61
80412;SHT30;69749;42.684;23.360;2024-03-23T09:39:15;23.01;22.57
80412;SHT30;69749;42.684;23.360;2024-03-23T09:41:41;22.69;23.29
80412;SHT30;69749;42.684;23.360;2024-03-23T09:44:07;22.43;23.48
80412;SHT30;69749;42.684;23.360;2024-03-23T09:46:32;22.43;23.64
80412;SHT30;69749;42.684;23.360;2024-03-23T09:49:00;22.45;24.35
80412;SHT30;69749;42.684;23.360;2024-03-23T09:51:26;22.70;24.12
80412;SHT30;69749;42.684;23.360;2024-03-23T09:53:52;22.83;23.87
80412;SHT30;69749;42.684;23.360;2024-03-23T09:56:18;22.71;24.08
80412;SHT30;69749;42.684;23.360;2024-03-23T09:58:44;22.35;24.11
80412;SHT30;69749;42.684;23.360;2024-03-23T10:01:10;22.12;24.34
80412;SHT30;69749;42.684;23.360;2024-03-23T10:03:48;22.20;24.19
80412;SHT30;69749;42.684;23.360;2024-03-23T10:06:13;22.15;24.22
80412;SHT30;69749;42.684;23.360;2024-03-23T10:08:39;21.99;24.15
80412;SHT30;69749;42.684;23.360;2024-03-23T10:11:14;22.12;24.18
80412;SHT30;69749;42.684;23.360;2024-03-23T10:13:44;21.87;24.26
80412;SHT30;69749;42.684;23.360;2024-03-23T10:16:11;21.81;23.72
80412;SHT30;69749;42.684;23.360;2024-03-23T10:18:38;21.84;23.60
80412;SHT30;69749;42.684;23.360;2024-03-23T10:21:08;21.61;23.79
80412;SHT30;69749;42.684;23.360;2024-03-23T10:23:43;21.37;24.04
80412;SHT30;69749;42.684;23.360;2024-03-23T10:28:54;21.29;23.20
80412;SHT30;69749;42.684;23.360;2024-03-23T10:31:22;21.06;23.65
80412;SHT30;69749;42.684;23.360;2024-03-23T10:33:48;21.07;24.85
80412;SHT30;69749;42.684;23.360;2024-03-23T10:36:14;21.13;25.09
80412;SHT30;69749;42.684;23.360;2024-03-23T10:38:44;21.23;25.00
80412;SHT30;69749;42.684;23.360;2024-03-23T10:41:10;20.76;24.67
80412;SHT30;69749;42.684;23.360;2024-03-23T10:43:37;20.68;25.14
80412;SHT30;69749;42.684;23.360;2024-03-23T10:46:03;20.56;24.97
80412;SHT30;69749;42.684;23.360;2024-03-23T10:48:29;20.51;24.67
80412;SHT30;69749;42.684;23.360;2024-03-23T10:50:54;20.38;25.02
80412;SHT30;69749;42.684;23.360;2024-03-23T10:53:21;20.52;24.81
80412;SHT30;69749;42.684;23.360;2024-03-23T10:55:50;20.64;25.01
80412;SHT30;69749;42.684;23.360;2024-03-23T10:58:29;20.69;24.54
80412;SHT30;69749;42.684;23.360;2024-03-23T11:00:55;20.69;24.45
80412;SHT30;69749;42.684;23.360;2024-03-23T11:03:30;20.68;23.97
80412;SHT30;69749;42.684;23.360;2024-03-23T11:05:56;20.40;24.33
80412;SHT30;69749;42.684;23.360;2024-03-23T11:08:41;20.23;24.98
80412;SHT30;69749;42.684;23.360;2024-03-23T11:11:22;20.18;25.46
80412;SHT30;69749;42.684;23.360;2024-03-23T11:13:51;20.09;25.48
80412;SHT30;69749;42.684;23.360;2024-03-23T11:16:17;20.09;24.19
80412;SHT30;69749;42.684;23.360;2024-03-23T11:18:46;19.93;25.25
80412;SHT30;69749;42.684;23.360;2024-03-23T11:24:16;19.94;25.44
80412;SHT30;69749;42.684;23.360;2024-03-23T11:26:42;19.97;24.64
80412;SHT30;69749;42.684;23.360;2024-03-23T11:29:25;19.90;24.93
80412;SHT30;69749;42.684;23.360;2024-03-23T11:31:52;19.94;25.05
80412;SHT30;69749;42.684;23.360;2024-03-23T11:34:21;20.00;25.16
80412;SHT30;69749;42.684;23.360;2024-03-23T11:36:47;20.01;25.68
80412;SHT30;69749;42.684;23.360;2024-03-23T11:41:55;20.00;25.45
80412;SHT30;69749;42.684;23.360;2024-03-23T11:44:27;20.01;24.46
80412;SHT30;69749;42.684;23.360;2024-03-23T11:46:52;19.70;24.81
80412;SHT30;69749;42.684;23.360;2024-03-23T11:49:28;19.55;24.84
80412;SHT30;69749;42.684;23.360;2024-03-23T11:51:56;19.51;25.25
80412;SHT30;69749;42.684;23.360;2024-03-23T11:54:26;19.46;25.04
80412;SHT30;69749;42.684;23.360;2024-03-23T11:57:02;19.39;25.29
80412;SHT30;69749;42.684;23.360;2024-03-23T11:59:36;19.34;25.63
80412;SHT30;69749;42.684;23.360;2024-03-23T12:02:07;19.29;25.41
80412;SHT30;69749;42.684;23.360;2024-03-23T12:04:33;19.24;25.58
80412;SHT30;69749;42.684;23.360;2024-03-23T12:09:39;19.10;25.93
80412;SHT30;69749;42.684;23.360;2024-03-23T12:12:15;19.05;26.01
80412;SHT30;69749;42.684;23.360;2024-03-23T12:14:44;19.01;26.03
80412;SHT30;69749;42.684;23.360;2024-03-23T12:17:14;19.03;25.86
80412;SHT30;69749;42.684;23.360;2024-03-23T12:19:41;19.00;25.87
80412;SHT30;69749;42.684;23.360;2024-03-23T12:22:10;19.01;26.13
80412;SHT30;69749;42.684;23.360;2024-03-23T12:24:36;19.12;26.31
80412;SHT30;69749;42.684;23.360;2024-03-23T12:27:05;19.25;25.72
80412;SHT30;69749;42.684;23.360;2024-03-23T12:29:31;19.29;25.29
80412;SHT30;69749;42.684;23.360;2024-03-23T12:32:01;19.31;25.14
80412;SHT30;69749;42.684;23.360;2024-03-23T12:34:27;19.29;24.64
80412;SHT30;69749;42.684;23.360;2024-03-23T12:36:53;19.31;24.55
80412;SHT30;69749;42.684;23.360;2024-03-23T12:39:19;19.12;24.41
80412;SHT30;69749;42.684;23.360;2024-03-23T12:41:47;19.11;24.26
80412;SHT30;69749;42.684;23.360;2024-03-23T12:44:12;19.10;24.26
80412;SHT30;69749;42.684;23.360;2024-03-23T12:46:39;19.11;24.07
80412;SHT30;69749;42.684;23.360;2024-03-23T12:49:04;19.08;24.20
80412;SHT30;69749;42.684;23.360;2024-03-23T12:51:30;19.08;24.67
80412;SHT30;69749;42.684;23.360;2024-03-23T12:53:56;19.17;24.71
80412;SHT30;69749;42.684;23.360;2024-03-23T12:56:22;19.18;24.45
80412;SHT30;69749;42.684;23.360;2024-03-23T12:58:47;19.11;24.51
80412;SHT30;69749;42.684;23.360;2024-03-23T13:01:20;19.11;24.89
80412;SHT30;69749;42.684;23.360;2024-03-23T13:03:47;19.22;24.99
80412;SHT30;69749;42.684;23.360;2024-03-23T13:06:12;19.26;24.49
80412;SHT30;69749;42.684;23.360;2024-03-23T13:08:38;19.31;23.68
80412;SHT30;69749;42.684;23.360;2024-03-23T13:11:05;19.32;24.04
80412;SHT30;69749;42.684;23.360;2024-03-23T13:13:31;19.39;24.29
80412;SHT30;69749;42.684;23.360;2024-03-23T13:15:58;19.48;24.60
80412;SHT30;69749;42.684;23.360;2024-03-23T13:18:24;19.42;24.84
80412;SHT30;69749;42.684;23.360;2024-03-23T13:20:49;19.41;24.33
80412;SHT30;69749;42.684;23.360;2024-03-23T13:23:15;19.49;24.38
80412;SHT30;69749;42.684;23.360;2024-03-23T13:25:40;19.52;23.89
80412;SHT30;69749;42.684;23.360;2024-03-23T13:28:06;19.59;23.75
80412;SHT30;69749;42.684;23.360;2024-03-23T13:30:31;19.21;24.39
80412;SHT30;69749;42.684;23.360;2024-03-23T13:32:57;19.25;24.63
80412;SHT30;69749;42.684;23.360;2024-03-23T13:35:22;19.26;24.35
80412;SHT30;69749;42.684;23.360;2024-03-23T13:37:48;19.11;24.10
80412;SHT30;69749;42.684;23.360;2024-03-23T13:40:14;19.18;23.96
80412;SHT30;69749;42.684;23.360;2024-03-23T13:42:39;19.29;23.24
80412;SHT30;69749;42.684;23.360;2024-03-23T13:45:05;19.26;24.66
80412;SHT30;69749;42.684;23.360;2024-03-23T13:47:30;19.17;24.36
80412;SHT30;69749;42.684;23.360;2024-03-23T13:49:56;19.26;21.35
80412;SHT30;69749;42.684;23.360;2024-03-23T13:52:21;19.21;20.56
80412;SHT30;69749;42.684;23.360;2024-03-23T13:54:51;19.26;23.34
80412;SHT30;69749;42.684;23.360;2024-03-23T13:57:17;19.31;23.40
80412;SHT30;69749;42.684;23.360;2024-03-23T13:59:45;19.41;21.07
80412;SHT30;69749;42.684;23.360;2024-03-23T14:02:11;19.48;20.24
80412;SHT30;69749;42.684;23.360;2024-03-23T14:04:39;19.52;20.17
80412;SHT30;69749;42.684;23.360;2024-03-23T14:07:05;19.48;20.14
80412;SHT30;69749;42.684;23.360;2024-03-23T14:09:32;19.52;19.79
80412;SHT30;69749;42.684;23.360;2024-03-23T14:11:58;19.48;19.87
80412;SHT30;69749;42.684;23.360;2024-03-23T14:14:25;19.44;20.02
80412;SHT30;69749;42.684;23.360;2024-03-23T14:16:51;19.42;19.72
80412;SHT30;69749;42.684;23.360;2024-03-23T14:19:16;19.41;20.02
80412;SHT30;69749;42.684;23.360;2024-03-23T14:21:42;19.46;19.82
80412;SHT30;69749;42.684;23.360;2024-03-23T14:24:07;19.38;19.65
80412;SHT30;69749;42.684;23.360;2024-03-23T14:26:34;19.34;19.99
80412;SHT30;69749;42.684;23.360;2024-03-23T14:29:00;19.22;20.43
80412;SHT30;69749;42.684;23.360;2024-03-23T14:31:26;19.24;19.87
80412;SHT30;69749;42.684;23.360;2024-03-23T14:33:51;19.24;20.07
80412;SHT30;69749;42.684;23.360;2024-03-23T14:36:17;19.19;19.87
80412;SHT30;69749;42.684;23.360;2024-03-23T14:38:46;19.18;19.49
80412;SHT30;69749;42.684;23.360;2024-03-23T14:41:12;19.21;19.08
80412;SHT30;69749;42.684;23.360;2024-03-23T14:43:37;19.22;19.11
80412;SHT30;69749;42.684;23.360;2024-03-23T14:46:13;19.29;19.37
80412;SHT30;69749;42.684;23.360;2024-03-23T14:48:40;19.35;19.51
80412;SHT30;69749;42.684;23.360;2024-03-23T14:51:06;19.36;20.50
80412;SHT30;69749;42.684;23.360;2024-03-23T14:53:37;19.36;20.22
80412;SHT30;69749;42.684;23.360;2024-03-23T14:56:03;19.36;20.12
80412;SHT30;69749;42.684;23.360;2024-03-23T14:58:29;19.41;20.49
80412;SHT30;69749;42.684;23.360;2024-03-23T15:01:02;19.51;20.20
80412;SHT30;69749;42.684;23.360;2024-03-23T15:03:28;19.51;19.73
80412;SHT30;69749;42.684;23.360;2024-03-23T15:05:58;19.41;19.99
80412;SHT30;69749;42.684;23.360;2024-03-23T15:08:24;19.38;20.59
80412;SHT30;69749;42.684;23.360;2024-03-23T15:10:50;19.39;20.76
80412;SHT30;69749;42.684;23.360;2024-03-23T15:13:16;19.34;20.58
80412;SHT30;69749;42.684;23.360;2024-03-23T15:15:42;19.31;20.39
80412;SHT30;69749;42.684;23.360;2024-03-23T15:18:13;19.22;20.46
80412;SHT30;69749;42.684;23.360;2024-03-23T15:20:41;19.34;21.50
80412;SHT30;69749;42.684;23.360;2024-03-23T15:23:06;19.29;22.79
80412;SHT30;69749;42.684;23.360;2024-03-23T15:25:33;19.14;25.70
80412;SHT30;69749;42.684;23.360;2024-03-23T15:27:58;19.18;22.60
80412;SHT30;69749;42.684;23.360;2024-03-23T15:30:26;19.18;23.54
80412;SHT30;69749;42.684;23.360;2024-03-23T15:32:51;19.14;22.93
80412;SHT30;69749;42.684;23.360;2024-03-23T15:35:17;19.21;23.21
80412;SHT30;69749;42.684;23.360;2024-03-23T15:37:44;19.28;22.73
80412;SHT30;69749;42.684;23.360;2024-03-23T15:40:10;19.32;22.85
80412;SHT30;69749;42.684;23.360;2024-03-23T15:42:36;19.36;23.08
80412;SHT30;69749;42.684;23.360;2024-03-23T15:45:02;19.38;23.19
80412;SHT30;69749;42.684;23.360;2024-03-23T15:47:28;19.39;23.07
80412;SHT30;69749;42.684;23.360;2024-03-23T15:49:54;19.55;23.38
80412;SHT30;69749;42.684;23.360;2024-03-23T15:52:21;19.69;22.99
80412;SHT30;69749;42.684;23.360;2024-03-23T15:54:46;19.62;20.75
80412;SHT30;69749;42.684;23.360;2024-03-23T15:57:12;19.55;21.16
80412;SHT30;69749;42.684;23.360;2024-03-23T15:59:40;19.15;20.78
80412;SHT30;69749;42.684;23.360;2024-03-23T16:02:06;19.15;20.14
80412;SHT30;69749;42.684;23.360;2024-03-23T16:04:32;19.18;20.37
80412;SHT30;69749;42.684;23.360;2024-03-23T16:07:00;19.21;20.93
80412;SHT30;69749;42.684;23.360;2024-03-23T16:09:26;19.17;21.24
80412;SHT30;69749;42.684;23.360;2024-03-23T16:11:53;19.12;22.00
80412;SHT30;69749;42.684;23.360;2024-03-23T16:14:18;19.14;22.22
80412;SHT30;69749;42.684;23.360;2024-03-23T16:16:44;19.07;22.46
80412;SHT30;69749;42.684;23.360;2024-03-23T16:19:09;18.97;22.63
80412;SHT30;69749;42.684;23.360;2024-03-23T16:21:37;18.93;23.11